Time;durP1;ratioP1;P1;durP2;ratioP2;P2;SDS_P1;SDS_P2;PMS_P1;PMS_P2;Temp;Humidity;BMP_temperature;BMP_pressure;BME280_temperature;BME280_humidity;BME280_pressure;Samples;Min_cycle;Max_cycle;Signal;HPM_P1;HPM_P2
2024/03/21 00:01:33;;;;;;;8.15;4.60;;;11.60;99.90;;;;;;5046997;28;20025;-56
2024/03/21 00:03:59;;;;;;;8.65;4.45;;;11.60;99.90;;;;;;5048773;28;20029;-56
2024/03/21 00:06:25;;;;;;;6.35;4.75;;;11.50;99.90;;;;;;5046851;28;20056;-58
2024/03/21 00:08:51;;;;;;;7.57;4.50;;;11.50;99.90;;;;;;5048593;28;20037;-57
2024/03/21 00:11:16;;;;;;;6.55;3.90;;;11.50;99.90;;;;;;5048102;28;20029;-58
2024/03/21 00:13:42;;;;;;;7.40;4.43;;;11.50;99.90;;;;;;5048731;28;20508;-56
2024/03/21 00:16:07;;;;;;;9.27;4.55;;;11.50;99.90;;;;;;5048716;28;20025;-55
2024/03/21 00:18:33;;;;;;;5.18;4.38;;;11.50;99.90;;;;;;5048550;28;20028;-55
2024/03/21 00:20:59;;;;;;;6.03;4.78;;;11.50;99.90;;;;;;5048328;28;20029;-57
2024/03/21 00:23:25;;;;;;;10.18;5.07;;;11.50;99.90;;;;;;5047787;28;20055;-56
2024/03/21 00:25:51;;;;;;;7.88;5.25;;;11.50;99.90;;;;;;5060286;28;20064;-52
2024/03/21 00:28:16;;;;;;;6.43;4.32;;;11.50;99.90;;;;;;5047360;28;20134;-52
2024/03/21 00:30:43;;;;;;;5.45;3.80;;;11.50;99.90;;;;;;5048333;28;20090;-51
2024/03/21 00:33:10;;;;;;;5.80;4.10;;;11.50;99.90;;;;;;5048315;28;20496;-52
2024/03/21 00:35:36;;;;;;;8.63;4.07;;;11.40;99.90;;;;;;5048408;28;20029;-57
2024/03/21 00:38:01;;;;;;;5.28;3.75;;;11.40;99.90;;;;;;5048134;28;20108;-53
2024/03/21 00:40:27;;;;;;;7.40;3.92;;;11.30;99.90;;;;;;5046790;28;20377;-51
2024/03/21 00:42:53;;;;;;;5.97;4.43;;;11.30;99.90;;;;;;5048313;28;20052;-54
2024/03/21 00:45:18;;;;;;;8.65;5.57;;;11.30;99.90;;;;;;5048300;28;20408;-56
2024/03/21 00:47:43;;;;;;;6.15;4.60;;;11.20;99.90;;;;;;5048209;28;20029;-57
2024/03/21 00:50:09;;;;;;;6.10;4.28;;;11.10;99.90;;;;;;5048322;28;20476;-55
2024/03/21 00:52:34;;;;;;;7.03;4.70;;;11.10;99.90;;;;;;5048171;28;20123;-55
2024/03/21 00:55:00;;;;;;;8.82;4.65;;;11.10;99.90;;;;;;5048187;28;20041;-55
2024/03/21 00:57:27;;;;;;;5.82;4.40;;;11.00;99.90;;;;;;5048141;28;20412;-57
2024/03/21 00:59:53;;;;;;;6.50;3.97;;;11.00;99.90;;;;;;5048121;28;20021;-54
2024/03/21 01:02:19;;;;;;;5.25;4.00;;;11.00;99.90;;;;;;5046851;28;20028;-56
2024/03/21 01:04:50;;;;;;;6.43;4.47;;;10.90;99.90;;;;;;5047713;28;20510;-55
2024/03/21 01:07:18;;;;;;;5.60;4.07;;;10.90;99.90;;;;;;5047920;28;20017;-54
2024/03/21 01:09:45;;;;;;;9.10;4.53;;;10.90;99.90;;;;;;5047852;28;20091;-54
2024/03/21 01:12:11;;;;;;;8.60;4.10;;;10.90;99.90;;;;;;5048022;28;20036;-56
2024/03/21 01:14:36;;;;;;;8.63;3.92;;;10.80;99.90;;;;;;5045985;28;20384;-52
2024/03/21 01:17:03;;;;;;;7.32;5.05;;;10.80;99.90;;;;;;5047932;28;20025;-54
2024/03/21 01:19:28;;;;;;;10.30;5.45;;;10.70;99.90;;;;;;5047969;28;20017;-55
2024/03/21 01:21:54;;;;;;;9.82;3.90;;;10.70;99.90;;;;;;5047634;28;20029;-59
2024/03/21 01:24:19;;;;;;;6.95;4.10;;;10.60;99.90;;;;;;5049102;28;20037;-54
2024/03/21 01:26:45;;;;;;;4.55;3.65;;;10.60;99.90;;;;;;5051732;28;20032;-55
2024/03/21 01:29:10;;;;;;;6.63;3.67;;;10.50;99.90;;;;;;5060298;28;20055;-57
2024/03/21 01:31:36;;;;;;;5.38;3.65;;;10.50;99.90;;;;;;5070005;28;20025;-54
2024/03/21 01:34:01;;;;;;;6.55;3.28;;;10.50;99.90;;;;;;5071641;28;20028;-53
2024/03/21 01:36:30;;;;;;;8.68;4.28;;;10.40;99.90;;;;;;5071334;28;20598;-57
2024/03/21 01:38:55;;;;;;;4.72;3.78;;;10.40;99.90;;;;;;5071607;28;20491;-56
2024/03/21 01:41:21;;;;;;;6.43;4.18;;;10.30;99.90;;;;;;5066817;23;20017;-50
2024/03/21 01:43:46;;;;;;;7.47;4.72;;;10.40;99.90;;;;;;5015211;28;20030;-48
2024/03/21 01:46:22;;;;;;;9.18;4.72;;;10.30;99.90;;;;;;5034555;28;20393;-46
2024/03/21 01:48:48;;;;;;;;;;;10.30;99.90;;;;;;5034994;28;20037;-50
2024/03/21 01:51:17;;;;;;;4.43;3.45;;;10.30;99.90;;;;;;5034330;28;20007;-52
2024/03/21 01:53:43;;;;;;;6.70;3.80;;;10.20;99.90;;;;;;5034226;28;20064;-51
2024/03/21 01:56:10;;;;;;;8.57;3.78;;;10.20;99.90;;;;;;5034090;28;20095;-49
2024/03/21 01:58:35;;;;;;;5.53;3.83;;;10.20;99.90;;;;;;5032857;28;20026;-52
2024/03/21 02:01:26;;;;;;;5.18;3.63;;;10.20;99.90;;;;;;5034257;28;20531;-50
2024/03/21 02:03:53;;;;;;;4.65;3.70;;;10.10;99.90;;;;;;5034302;28;20026;-54
2024/03/21 02:06:20;;;;;;;5.97;4.45;;;10.10;99.90;;;;;;5032637;28;20029;-51
2024/03/21 02:08:45;;;;;;;8.88;4.00;;;10.10;99.90;;;;;;5034543;28;20519;-52
2024/03/21 02:11:12;;;;;;;4.75;3.95;;;10.10;99.90;;;;;;5034107;28;20059;-53
2024/03/21 02:13:38;;;;;;;5.15;4.00;;;10.10;99.90;;;;;;5034226;28;20018;-45
2024/03/21 02:16:03;;;;;;;8.63;4.60;;;10.10;99.90;;;;;;5033919;28;20444;-51
2024/03/21 02:18:29;;;;;;;5.53;3.97;;;10.00;99.90;;;;;;5032510;28;20080;-53
2024/03/21 02:20:54;;;;;;;8.50;4.32;;;10.00;99.90;;;;;;5033633;28;20474;-52
2024/03/21 02:23:20;;;;;;;8.30;4.15;;;10.00;99.90;;;;;;5033714;28;20033;-49
2024/03/21 02:25:47;;;;;;;6.75;4.43;;;9.90;99.90;;;;;;5033363;28;20116;-51
2024/03/21 02:28:13;;;;;;;4.30;3.88;;;9.90;99.90;;;;;;5033676;28;20024;-50
2024/03/21 02:30:38;;;;;;;6.22;4.28;;;9.80;99.90;;;;;;5032265;28;20030;-51
2024/03/21 02:33:04;;;;;;;5.25;3.88;;;9.80;99.90;;;;;;5033242;28;20082;-50
2024/03/21 02:35:30;;;;;;;5.10;4.43;;;9.80;99.90;;;;;;5032324;28;20040;-47
2024/03/21 02:37:56;;;;;;;6.30;4.32;;;9.70;99.90;;;;;;5033498;28;20025;-52
2024/03/21 02:40:21;;;;;;;7.03;4.38;;;9.70;99.90;;;;;;5033010;28;20112;-52
2024/03/21 02:42:47;;;;;;;8.48;5.00;;;9.70;99.90;;;;;;5033254;28;20033;-51
2024/03/21 02:45:13;;;;;;;6.18;4.25;;;9.70;99.90;;;;;;5032190;28;20513;-47
2024/03/21 02:47:38;;;;;;;5.10;4.55;;;9.60;99.90;;;;;;5033482;28;20037;-53
2024/03/21 02:50:04;;;;;;;5.38;4.18;;;9.60;99.90;;;;;;5032508;28;20163;-50
2024/03/21 02:52:30;;;;;;;8.38;4.88;;;9.60;99.90;;;;;;5032883;28;20386;-50
2024/03/21 02:54:55;;;;;;;8.50;3.80;;;9.60;99.90;;;;;;5031787;28;20105;-50
2024/03/21 02:57:21;;;;;;;8.43;4.15;;;9.60;99.90;;;;;;5032784;28;20035;-49
2024/03/21 02:59:46;;;;;;;5.40;4.70;;;9.60;99.90;;;;;;5033034;28;20097;-50
2024/03/21 03:02:13;;;;;;;6.32;4.80;;;9.60;99.90;;;;;;5032850;28;20025;-50
2024/03/21 03:04:39;;;;;;;7.57;4.78;;;9.70;99.90;;;;;;5032936;28;20018;-48
2024/03/21 03:07:04;;;;;;;10.20;5.43;;;9.70;99.90;;;;;;5032685;28;20036;-48
2024/03/21 03:09:30;;;;;;;9.60;4.90;;;9.60;99.90;;;;;;5032901;28;20057;-52
2024/03/21 03:11:55;;;;;;;7.03;4.65;;;9.60;99.90;;;;;;5032767;28;20481;-50
2024/03/21 03:14:21;;;;;;;5.57;4.35;;;9.60;99.90;;;;;;5032751;28;20026;-49
2024/03/21 03:16:46;;;;;;;8.35;6.25;;;9.50;99.90;;;;;;5031462;28;20082;-52
2024/03/21 03:19:12;;;;;;;8.00;4.75;;;9.50;99.90;;;;;;5033712;28;20026;-46
2024/03/21 03:21:38;;;;;;;11.90;4.70;;;9.40;99.90;;;;;;5031087;28;20053;-47
2024/03/21 03:24:03;;;;;;;8.50;4.57;;;9.40;99.90;;;;;;5030875;28;20040;-50
2024/03/21 03:26:29;;;;;;;6.72;4.70;;;9.40;99.90;;;;;;5032366;28;20033;-55
2024/03/21 03:28:55;;;;;;;11.20;5.50;;;9.30;99.90;;;;;;5032399;28;20095;-51
2024/03/21 03:31:20;;;;;;;6.47;5.28;;;9.30;99.90;;;;;;5032443;28;20037;-47
2024/03/21 03:36:31;;;;;;;7.15;4.53;;;9.20;99.90;;;;;;5032257;28;20115;-51
2024/03/21 03:38:56;;;;;;;7.32;4.88;;;9.20;99.90;;;;;;5032763;28;20033;-49
2024/03/21 03:41:22;;;;;;;12.65;5.45;;;9.10;99.90;;;;;;5030947;28;20026;-49
2024/03/21 03:43:48;;;;;;;6.22;5.05;;;9.10;99.90;;;;;;5033223;28;20357;-53
2024/03/21 03:46:14;;;;;;;7.32;4.75;;;9.00;99.90;;;;;;5032229;28;20084;-51
2024/03/21 03:48:39;;;;;;;6.25;5.10;;;9.00;99.90;;;;;;5030594;28;20094;-51
2024/03/21 03:51:05;;;;;;;8.00;5.80;;;8.90;99.90;;;;;;5030889;28;20025;-52
2024/03/21 03:53:31;;;;;;;7.07;5.22;;;8.90;99.90;;;;;;5032098;28;20026;-48
2024/03/21 03:55:57;;;;;;;5.65;4.90;;;8.90;99.90;;;;;;5031996;28;20030;-51
2024/03/21 03:58:22;;;;;;;10.35;5.90;;;8.90;99.90;;;;;;5032001;28;20064;-52
2024/03/21 04:00:58;;;;;;;9.30;5.70;;;8.80;99.90;;;;;;5031701;28;20022;-52
2024/03/21 04:03:25;;;;;;;12.52;6.60;;;8.90;99.90;;;;;;5031670;28;20048;-48
2024/03/21 04:05:59;;;;;;;11.90;7.43;;;8.90;99.90;;;;;;5029915;28;20497;-48
2024/03/21 04:08:25;;;;;;;9.07;7.00;;;8.80;99.90;;;;;;5031710;28;20030;-49
2024/03/21 04:10:51;;;;;;;11.57;8.02;;;8.90;99.90;;;;;;5031647;28;20022;-50
2024/03/21 04:13:16;;;;;;;12.15;7.25;;;8.90;99.90;;;;;;5031460;28;20551;-47
2024/03/21 04:15:42;;;;;;;9.43;6.47;;;8.90;99.90;;;;;;5031515;28;20040;-48
2024/03/21 04:18:08;;;;;;;8.50;6.18;;;9.00;99.90;;;;;;5031536;28;20033;-51
2024/03/21 04:20:33;;;;;;;11.45;6.22;;;9.00;99.90;;;;;;5031499;28;20036;-48
2024/03/21 04:22:59;;;;;;;7.80;5.45;;;9.00;99.90;;;;;;5030194;28;20079;-55
2024/03/21 04:25:24;;;;;;;6.45;4.85;;;9.00;99.90;;;;;;5031681;28;20033;-48
2024/03/21 04:27:50;;;;;;;5.97;3.55;;;9.00;99.90;;;;;;5030306;28;20099;-51
2024/03/21 04:30:16;;;;;;;8.45;3.60;;;8.80;99.90;;;;;;5030687;28;20064;-50
2024/03/21 04:32:41;;;;;;;11.50;3.90;;;8.70;99.90;;;;;;5031492;28;20200;-52
2024/03/21 04:35:09;;;;;;;6.82;3.67;;;8.70;99.90;;;;;;5031520;28;20029;-51
2024/03/21 04:37:34;;;;;;;6.63;3.70;;;8.70;99.90;;;;;;5031526;28;20025;-48
2024/03/21 04:40:00;;;;;;;5.90;3.83;;;8.70;99.90;;;;;;5031621;28;20025;-53
2024/03/21 04:42:25;;;;;;;8.57;3.50;;;8.70;99.90;;;;;;5031631;28;20086;-49
2024/03/21 04:44:51;;;;;;;3.70;3.40;;;8.70;99.90;;;;;;5031513;28;20488;-51
2024/03/21 04:47:16;;;;;;;11.32;7.95;;;8.70;99.90;;;;;;5031310;28;20040;-53
2024/03/21 04:49:42;;;;;;;10.93;7.93;;;8.70;99.90;;;;;;5031647;28;20137;-49
2024/03/21 04:52:10;;;;;;;11.07;7.22;;;8.70;99.90;;;;;;5030219;28;20211;-52
2024/03/21 04:54:35;;;;;;;13.55;8.98;;;8.80;99.90;;;;;;5031967;28;20083;-52
2024/03/21 04:57:01;;;;;;;9.52;8.07;;;8.90;99.90;;;;;;5031346;28;20025;-52
2024/03/21 04:59:28;;;;;;;8.50;6.78;;;8.90;99.90;;;;;;5033592;28;20061;-54
2024/03/21 05:01:57;;;;;;;7.38;5.07;;;9.00;99.90;;;;;;5035783;28;20418;-51
2024/03/21 05:04:22;;;;;;;8.82;5.15;;;8.90;99.90;;;;;;5035318;28;20053;-49
2024/03/21 05:06:48;;;;;;;7.18;5.72;;;8.90;99.90;;;;;;5035287;28;20497;-47
2024/03/21 05:09:13;;;;;;;9.52;6.40;;;8.90;99.90;;;;;;5035261;28;20029;-51
2024/03/21 05:11:39;;;;;;;12.07;6.43;;;8.90;99.90;;;;;;5035087;28;20034;-46
2024/03/21 05:14:04;;;;;;;13.27;8.75;;;9.10;99.90;;;;;;5035152;28;20396;-52
2024/03/21 05:16:30;;;;;;;11.07;9.77;;;9.00;99.90;;;;;;5034123;28;20041;-50
2024/03/21 05:18:56;;;;;;;13.48;10.52;;;9.00;99.90;;;;;;5035333;28;20025;-49
2024/03/21 05:21:22;;;;;;;15.13;10.40;;;9.10;99.90;;;;;;5034454;28;20076;-50
2024/03/21 05:23:48;;;;;;;16.92;10.43;;;9.10;99.90;;;;;;5034863;28;20104;-50
2024/03/21 05:26:13;;;;;;;13.85;10.65;;;9.20;99.90;;;;;;5034930;28;20048;-52
2024/03/21 05:28:39;;;;;;;13.38;10.52;;;9.10;99.90;;;;;;5034758;28;20025;-47
2024/03/21 05:31:20;;;;;;;16.38;11.15;;;9.20;99.90;;;;;;5034800;28;20026;-49
2024/03/21 05:33:46;;;;;;;15.77;11.50;;;9.20;99.90;;;;;;5034831;28;20095;-51
2024/03/21 05:36:12;;;;;;;16.27;11.15;;;9.20;99.90;;;;;;5034740;28;20029;-55
2024/03/21 05:38:37;;;;;;;20.60;12.32;;;9.20;99.90;;;;;;5034514;28;20049;-49
2024/03/21 05:41:03;;;;;;;17.17;11.98;;;9.20;99.90;;;;;;5034378;28;20490;-49
2024/03/21 05:43:28;;;;;;;12.60;9.98;;;9.20;99.90;;;;;;5034413;28;20514;-48
2024/03/21 05:45:54;;;;;;;19.02;9.93;;;9.20;99.90;;;;;;5034146;28;20033;-48
2024/03/21 05:48:19;;;;;;;18.30;12.38;;;9.20;99.90;;;;;;5034335;28;20308;-50
2024/03/21 05:50:45;;;;;;;17.00;12.40;;;9.20;99.90;;;;;;5034353;28;20393;-46
2024/03/21 05:53:10;;;;;;;22.15;14.27;;;9.20;99.90;;;;;;5033913;28;20493;-51
2024/03/21 05:55:36;;;;;;;22.73;15.45;;;9.30;99.90;;;;;;5034241;28;20033;-48
2024/03/21 05:58:01;;;;;;;23.27;14.85;;;9.30;99.90;;;;;;5032791;28;20024;-49
2024/03/21 06:00:27;;;;;;;23.45;16.83;;;9.30;99.90;;;;;;5034064;28;20057;-48
2024/03/21 06:02:52;;;;;;;17.90;13.98;;;9.30;99.90;;;;;;5034022;28;20465;-52
2024/03/21 06:05:18;;;;;;;16.70;12.82;;;9.40;99.90;;;;;;5033996;28;20083;-52
2024/03/21 06:07:43;;;;;;;24.65;16.45;;;9.40;99.90;;;;;;5033948;28;20033;-49
2024/03/21 06:10:09;;;;;;;21.67;15.02;;;9.40;99.90;;;;;;5032399;28;20025;-52
2024/03/21 06:12:34;;;;;;;18.13;13.02;;;9.40;99.90;;;;;;5033829;28;20107;-50
2024/03/21 06:15:00;;;;;;;15.82;12.05;;;9.40;99.90;;;;;;5033849;28;20099;-50
2024/03/21 06:17:26;;;;;;;15.40;12.38;;;9.50;99.90;;;;;;5033655;28;20432;-51
2024/03/21 06:19:52;;;;;;;14.95;11.90;;;9.60;99.90;;;;;;5033808;28;20060;-51
2024/03/21 06:22:18;;;;;;;20.95;12.75;;;9.60;99.90;;;;;;5033625;28;20493;-53
2024/03/21 06:24:43;;;;;;;13.85;10.40;;;9.70;99.90;;;;;;5033776;28;20036;-49
2024/03/21 06:27:09;;;;;;;21.20;12.27;;;9.70;99.90;;;;;;5033450;28;20447;-53
2024/03/21 06:29:35;;;;;;;19.75;12.23;;;9.70;99.90;;;;;;5033722;28;20022;-50
2024/03/21 06:32:00;;;;;;;17.60;13.27;;;9.80;99.90;;;;;;5033433;28;20029;-53
2024/03/21 06:34:26;;;;;;;17.92;12.23;;;9.80;99.90;;;;;;5049337;28;20037;-52
2024/03/21 06:36:51;;;;;;;16.17;12.00;;;9.70;99.90;;;;;;5033385;28;20445;-48
2024/03/21 06:39:19;;;;;;;17.40;12.63;;;9.70;99.90;;;;;;5023079;28;20093;-48
2024/03/21 06:41:45;;;;;;;18.00;12.68;;;9.70;99.90;;;;;;5021927;28;20400;-47
2024/03/21 06:44:10;;;;;;;21.63;14.10;;;9.80;99.90;;;;;;5023662;28;20109;-53
2024/03/21 06:46:38;;;;;;;14.65;11.27;;;9.90;99.90;;;;;;5022577;28;20033;-48
2024/03/21 06:49:04;;;;;;;12.98;11.15;;;10.00;99.90;;;;;;5022288;28;20018;-48
2024/03/21 06:51:30;;;;;;;17.83;12.25;;;10.10;99.90;;;;;;5023643;28;20034;-47
2024/03/21 06:53:55;;;;;;;16.02;11.40;;;10.20;99.90;;;;;;5022513;28;20478;-47
2024/03/21 06:56:21;;;;;;;15.70;11.95;;;10.40;99.90;;;;;;5022425;28;20456;-52
2024/03/21 06:58:46;;;;;;;26.50;15.15;;;10.40;99.90;;;;;;5024271;28;20025;-48
2024/03/21 07:01:16;;;;;;;20.90;13.75;;;10.40;99.90;;;;;;5021628;28;20084;-48
2024/03/21 07:03:42;;;;;;;25.60;13.90;;;10.30;99.90;;;;;;5022640;28;20481;-49
2024/03/21 07:06:07;;;;;;;17.30;13.90;;;10.30;99.90;;;;;;5015780;28;20036;-47
2024/03/21 07:08:33;;;;;;;25.90;14.52;;;10.20;99.90;;;;;;5013117;28;20034;-49
2024/03/21 07:10:58;;;;;;;23.17;15.35;;;10.30;99.90;;;;;;5012774;28;20033;-46
2024/03/21 07:13:24;;;;;;;17.55;13.10;;;10.30;99.90;;;;;;5012927;28;20114;-47
2024/03/21 07:15:49;;;;;;;23.73;14.57;;;10.20;99.90;;;;;;5013041;28;20109;-54
2024/03/21 07:18:15;;;;;;;23.05;14.90;;;10.20;99.90;;;;;;5012891;28;20095;-45
2024/03/21 07:20:40;;;;;;;16.23;12.60;;;10.30;99.90;;;;;;5012760;28;20026;-47
2024/03/21 07:23:07;;;;;;;21.05;15.23;;;10.30;99.90;;;;;;5012155;28;20034;-50
2024/03/21 07:25:35;;;;;;;23.27;14.65;;;10.30;99.90;;;;;;5030796;28;20033;-52
2024/03/21 07:28:01;;;;;;;20.20;14.95;;;10.50;99.90;;;;;;5031381;28;20060;-52
2024/03/21 07:30:26;;;;;;;17.08;13.90;;;10.50;99.90;;;;;;5032669;28;20501;-53
2024/03/21 07:32:52;;;;;;;20.67;15.63;;;10.60;99.90;;;;;;5032066;28;20041;-50
2024/03/21 07:35:17;;;;;;;20.98;14.95;;;10.70;99.90;;;;;;5031166;28;20390;-49
2024/03/21 07:37:43;;;;;;;30.67;15.05;;;10.70;99.90;;;;;;5032651;28;20029;-49
2024/03/21 07:40:09;;;;;;;22.08;15.18;;;10.80;99.90;;;;;;5032246;28;20029;-55
2024/03/21 07:42:35;;;;;;;20.50;14.23;;;10.90;99.90;;;;;;5069386;22;20060;-58
2024/03/21 07:45:03;;;;;;;18.33;13.57;;;11.00;99.90;;;;;;5072107;28;20059;-57
2024/03/21 07:47:28;;;;;;;15.57;12.32;;;11.10;99.90;;;;;;5059802;28;20029;-56
2024/03/21 07:49:54;;;;;;;18.23;13.88;;;11.20;99.90;;;;;;5062777;28;20086;-56
2024/03/21 07:52:20;;;;;;;18.42;13.18;;;11.30;99.90;;;;;;5055925;28;20049;-57
2024/03/21 07:54:46;;;;;;;23.88;14.48;;;11.30;99.90;;;;;;5052288;28;20061;-54
2024/03/21 07:57:11;;;;;;;24.63;13.35;;;11.40;99.90;;;;;;5052207;28;20516;-57
2024/03/21 07:59:37;;;;;;;18.88;13.02;;;11.50;99.90;;;;;;5052053;28;20392;-54
2024/03/21 08:02:03;;;;;;;19.48;13.52;;;11.60;99.90;;;;;;5051719;28;20038;-56
2024/03/21 08:04:29;;;;;;;14.25;11.95;;;11.80;99.90;;;;;;5052007;28;20253;-57
2024/03/21 08:06:57;;;;;;;16.25;12.38;;;11.90;99.90;;;;;;5051885;28;20381;-58
2024/03/21 08:09:23;;;;;;;17.75;12.82;;;12.20;99.90;;;;;;5051778;28;20024;-58
2024/03/21 08:11:49;;;;;;;15.05;10.68;;;12.50;99.90;;;;;;5051609;28;20033;-58
2024/03/21 08:14:14;;;;;;;18.67;12.13;;;12.80;99.90;;;;;;5055527;28;20392;-56
2024/03/21 08:16:40;;;;;;;16.50;11.95;;;13.10;99.90;;;;;;5070785;28;20040;-59
2024/03/21 08:19:05;;;;;;;15.55;11.65;;;13.30;99.90;;;;;;5059577;28;20032;-56
2024/03/21 08:21:31;;;;;;;15.20;10.88;;;13.60;99.90;;;;;;5069687;28;20032;-58
2024/03/21 08:23:56;;;;;;;14.55;11.65;;;13.90;99.90;;;;;;5060033;28;20020;-57
2024/03/21 08:26:22;;;;;;;12.90;10.15;;;14.30;99.90;;;;;;5051397;28;20036;-57
2024/03/21 08:28:47;;;;;;;16.27;10.80;;;14.40;99.90;;;;;;5051829;28;20457;-55
2024/03/21 08:31:13;;;;;;;11.07;9.25;;;14.60;99.90;;;;;;5050055;28;20025;-54
2024/03/21 08:33:38;;;;;;;12.98;9.68;;;14.80;99.90;;;;;;5050634;28;20403;-57
2024/03/21 08:36:04;;;;;;;15.60;11.80;;;15.00;99.90;;;;;;5051321;28;20040;-55
2024/03/21 08:38:31;;;;;;;18.08;10.48;;;15.30;99.90;;;;;;5051541;28;20491;-57
2024/03/21 08:40:57;;;;;;;14.68;10.93;;;15.50;99.90;;;;;;5051172;28;20023;-57
2024/03/21 08:43:22;;;;;;;15.32;10.60;;;15.60;99.90;;;;;;5051513;28;20029;-54
2024/03/21 08:45:49;;;;;;;10.93;9.75;;;15.50;99.90;;;;;;5058388;28;20044;-54
2024/03/21 08:48:15;;;;;;;15.70;11.15;;;15.50;99.90;;;;;;5058731;28;20021;-56
2024/03/21 08:50:47;;;;;;;12.48;10.35;;;15.60;99.90;;;;;;5051118;28;20025;-57
2024/03/21 08:53:17;;;;;;;16.17;10.20;;;15.70;99.90;;;;;;5051152;28;20412;-54
2024/03/21 08:55:43;;;;;;;13.52;11.40;;;15.70;99.90;;;;;;5051244;28;20485;-57
2024/03/21 08:58:08;;;;;;;17.15;12.75;;;15.80;99.90;;;;;;5049907;28;20021;-56
2024/03/21 09:00:37;;;;;;;18.60;14.43;;;15.80;99.90;;;;;;5051074;28;20078;-54
2024/03/21 09:03:03;;;;;;;21.30;14.20;;;15.90;99.90;;;;;;5051196;28;20469;-52
2024/03/21 09:05:29;;;;;;;20.30;15.52;;;16.20;99.90;;;;;;5051363;28;20029;-56
2024/03/21 09:07:55;;;;;;;20.73;16.92;;;16.80;99.90;;;;;;5051317;28;20032;-57
2024/03/21 09:10:21;;;;;;;21.58;16.42;;;17.90;99.90;;;;;;5051528;28;20389;-53
2024/03/21 09:12:47;;;;;;;28.08;18.25;;;18.80;99.90;;;;;;5072063;28;20040;-55
2024/03/21 09:15:14;;;;;;;20.10;14.07;;;19.80;99.90;;;;;;5071438;28;20029;-56
2024/03/21 09:17:40;;;;;;;14.57;11.65;;;20.60;99.90;;;;;;5071787;28;20031;-57
2024/03/21 09:20:07;;;;;;;18.30;14.43;;;21.40;99.90;;;;;;5070819;28;20103;-57
2024/03/21 09:22:36;;;;;;;21.80;14.13;;;22.10;99.90;;;;;;5070896;28;20095;-54
2024/03/21 09:25:03;;;;;;;19.27;15.65;;;22.70;99.80;;;;;;5071110;28;20033;-55
2024/03/21 09:27:28;;;;;;;30.77;22.95;;;23.10;99.20;;;;;;5071029;28;20484;-57
2024/03/21 09:29:54;;;;;;;34.58;26.58;;;23.30;97.70;;;;;;5069830;28;20031;-56
2024/03/21 09:32:20;;;;;;;32.10;25.05;;;23.40;97.70;;;;;;5071179;28;20024;-54
2024/03/21 09:34:51;;;;;;;30.67;23.70;;;22.90;96.80;;;;;;5071412;28;20044;-57
2024/03/21 09:37:18;;;;;;;30.67;22.00;;;22.90;97.50;;;;;;5054645;28;20147;-55
2024/03/21 09:39:44;;;;;;;30.23;23.15;;;23.20;97.60;;;;;;5050009;28;20057;-57
2024/03/21 09:42:17;;;;;;;36.00;26.63;;;22.90;97.40;;;;;;5051168;28;20057;-55
2024/03/21 09:44:53;;;;;;;35.20;25.67;;;22.90;97.20;;;;;;5051434;28;20092;-54
2024/03/21 09:47:20;;;;;;;40.17;25.92;;;22.50;97.00;;;;;;5054572;28;20025;-57
2024/03/21 09:49:51;;;;;;;33.80;26.13;;;22.20;97.00;;;;;;5054317;28;20029;-50
2024/03/21 09:52:17;;;;;;;34.05;26.67;;;21.80;97.30;;;;;;5054531;28;20036;-54
2024/03/21 09:54:43;;;;;;;34.92;26.92;;;21.40;97.90;;;;;;5054340;28;20033;-57
2024/03/21 09:57:12;;;;;;;35.97;27.00;;;21.10;98.60;;;;;;5054815;28;20566;-54
2024/03/21 09:59:38;;;;;;;33.08;25.30;;;20.90;98.40;;;;;;5058451;28;20021;-58
2024/03/21 10:02:07;;;;;;;31.33;26.33;;;20.70;98.60;;;;;;5054311;28;20036;-55
2024/03/21 10:04:44;;;;;;;31.58;23.45;;;20.60;98.60;;;;;;5053022;28;20017;-57
2024/03/21 10:07:20;;;;;;;29.17;24.83;;;20.80;99.30;;;;;;5054293;28;20021;-57
2024/03/21 10:09:55;;;;;;;38.05;28.23;;;20.60;99.20;;;;;;5053991;28;20035;-57
2024/03/21 10:12:21;;;;;;;35.85;26.95;;;20.20;99.20;;;;;;5054010;28;20044;-60
2024/03/21 10:14:47;;;;;;;36.05;27.42;;;19.80;99.90;;;;;;5054348;28;20396;-58
2024/03/21 10:17:13;;;;;;;41.28;30.35;;;19.60;99.90;;;;;;5054049;28;20021;-58
2024/03/21 10:19:38;;;;;;;41.70;27.10;;;19.50;99.90;;;;;;5054963;28;20037;-54
2024/03/21 10:22:04;;;;;;;42.72;28.15;;;19.40;99.90;;;;;;5057426;28;20021;-57
2024/03/21 10:24:30;;;;;;;42.70;28.88;;;19.40;99.90;;;;;;5066322;28;20087;-57
2024/03/21 10:26:56;;;;;;;33.83;25.80;;;19.60;99.90;;;;;;5073884;28;20396;-58
2024/03/21 10:29:23;;;;;;;37.35;27.83;;;19.80;99.90;;;;;;5073740;28;20036;-58
2024/03/21 10:31:50;;;;;;;35.58;25.52;;;20.00;99.90;;;;;;5073468;28;20105;-56
2024/03/21 10:34:17;;;;;;;33.17;25.35;;;20.00;99.90;;;;;;5073698;28;20028;-57
2024/03/21 10:36:43;;;;;;;38.00;26.23;;;20.00;99.90;;;;;;5072047;28;20025;-57
2024/03/21 10:39:10;;;;;;;34.67;24.83;;;20.00;99.90;;;;;;5073438;28;20564;-56
2024/03/21 10:41:39;;;;;;;35.38;24.17;;;19.80;99.90;;;;;;5073450;28;20024;-57
2024/03/21 10:44:09;;;;;;;34.40;25.80;;;19.70;99.90;;;;;;5073599;28;20071;-56
2024/03/21 10:46:37;;;;;;;30.90;23.33;;;19.40;99.90;;;;;;5071458;28;20032;-58
2024/03/21 10:49:03;;;;;;;34.63;23.58;;;19.20;99.90;;;;;;5073766;28;20484;-57
2024/03/21 10:51:28;;;;;;;41.88;27.13;;;19.00;99.90;;;;;;5065812;28;20037;-56
2024/03/21 10:53:56;;;;;;;35.47;24.95;;;18.80;99.90;;;;;;5053489;28;20400;-57
2024/03/21 10:56:25;;;;;;;41.25;23.08;;;18.50;99.90;;;;;;5052936;28;20029;-59
2024/03/21 10:58:56;;;;;;;33.88;21.30;;;18.40;99.90;;;;;;5055175;28;20115;-57
2024/03/21 11:01:38;;;;;;;29.55;19.10;;;17.90;99.90;;;;;;5059802;28;20400;-55
2024/03/21 11:04:05;;;;;;;28.38;19.65;;;17.70;99.90;;;;;;5073522;28;20073;-57
2024/03/21 11:06:35;;;;;;;24.83;17.42;;;17.60;99.90;;;;;;5073717;28;20116;-57
2024/03/21 11:09:02;;;;;;;22.45;16.10;;;17.50;99.90;;;;;;5073193;28;20032;-54
2024/03/21 11:11:29;;;;;;;26.38;15.45;;;17.30;99.90;;;;;;5073101;28;20036;-57
2024/03/21 11:13:59;;;;;;;22.08;13.88;;;17.40;99.90;;;;;;5071549;28;20028;-60
2024/03/21 11:16:24;;;;;;;17.70;11.73;;;17.50;99.90;;;;;;5072906;28;20393;-54
2024/03/21 11:18:50;;;;;;;17.80;12.07;;;17.40;99.90;;;;;;5073083;28;20016;-54
2024/03/21 11:21:15;;;;;;;14.50;10.77;;;17.30;99.90;;;;;;5072541;28;20129;-54
2024/03/21 11:23:41;;;;;;;14.77;11.43;;;17.40;99.90;;;;;;5056043;28;20055;-57
2024/03/21 11:26:13;;;;;;;14.02;11.20;;;17.40;99.90;;;;;;5070208;28;20025;-58
2024/03/21 11:28:38;;;;;;;15.40;11.05;;;17.30;99.90;;;;;;5063899;28;20028;-64
2024/03/21 11:31:04;;;;;;;13.25;10.35;;;17.20;99.90;;;;;;5063574;28;20401;-57
2024/03/21 11:33:29;;;;;;;11.80;9.98;;;17.10;99.90;;;;;;5052400;28;20028;-58
2024/03/21 11:35:55;;;;;;;13.02;9.02;;;17.20;99.90;;;;;;5052370;28;20025;-57
2024/03/21 11:38:21;;;;;;;18.67;10.70;;;17.20;99.90;;;;;;5066968;28;20048;-54
2024/03/21 11:40:48;;;;;;;13.25;9.57;;;17.30;99.90;;;;;;5059704;28;20499;-62
2024/03/21 11:43:14;;;;;;;21.65;14.52;;;17.30;99.90;;;;;;5067457;28;20029;-60
2024/03/21 11:45:40;;;;;;;13.18;8.82;;;17.20;99.90;;;;;;5070549;28;20028;-48
2024/03/21 11:48:10;;;;;;;26.25;17.65;;;17.10;99.90;;;;;;5072103;28;20033;-51
2024/03/21 11:50:38;;;;;;;11.43;7.13;;;17.20;99.90;;;;;;5092165;28;20442;-51
2024/03/21 11:53:04;;;;;;;8.70;6.55;;;17.10;99.90;;;;;;5081255;28;20556;-49
2024/03/21 11:55:30;;;;;;;7.07;5.55;;;17.10;99.90;;;;;;5066562;28;20028;-48
2024/03/21 11:57:55;;;;;;;10.75;6.30;;;17.20;99.90;;;;;;5073824;28;20051;-46
2024/03/21 12:00:22;;;;;;;5.70;5.13;;;17.10;99.90;;;;;;5067983;28;20033;-52
2024/03/21 12:02:51;;;;;;;4.53;4.05;;;17.10;99.90;;;;;;5053721;28;20095;-48
2024/03/21 12:05:17;;;;;;;7.50;5.05;;;17.10;99.90;;;;;;5060519;28;20043;-53
2024/03/21 12:07:43;;;;;;;8.63;5.03;;;17.20;99.90;;;;;;5091621;28;20024;-48
2024/03/21 12:10:09;;;;;;;5.22;4.72;;;17.30;99.90;;;;;;5062663;28;20033;-50
2024/03/21 12:12:35;;;;;;;6.45;5.05;;;17.30;99.90;;;;;;5049224;28;20585;-53
2024/03/21 12:15:01;;;;;;;6.30;5.53;;;17.30;99.90;;;;;;5064279;28;20063;-53
2024/03/21 12:17:26;;;;;;;6.55;5.75;;;17.30;99.90;;;;;;5052750;28;20104;-51
2024/03/21 12:19:52;;;;;;;8.23;6.22;;;17.40;99.90;;;;;;5050703;28;20021;-53
2024/03/21 12:22:17;;;;;;;7.03;5.32;;;17.40;99.90;;;;;;5058655;28;20017;-49
2024/03/21 12:24:43;;;;;;;8.80;6.28;;;17.50;99.90;;;;;;5071675;28;20050;-46
2024/03/21 12:27:09;;;;;;;10.23;6.70;;;17.50;99.90;;;;;;5071455;28;20079;-49
2024/03/21 12:29:35;;;;;;;8.40;7.07;;;17.40;99.90;;;;;;5071451;28;20452;-48
2024/03/21 12:32:01;;;;;;;16.42;10.60;;;17.40;99.90;;;;;;5071329;28;20052;-52
2024/03/21 12:34:26;;;;;;;10.90;7.45;;;17.30;99.90;;;;;;5070206;28;20044;-52
2024/03/21 12:36:52;;;;;;;7.55;5.13;;;17.40;99.90;;;;;;5071288;28;20067;-53
2024/03/21 12:39:19;;;;;;;8.35;6.28;;;17.40;99.90;;;;;;5071507;28;20032;-51